createdAt,value
2018-01-24T00:01:03.862Z,101270
2018-01-24T00:03:32.106Z,101271
2018-01-24T00:06:01.128Z,101273
2018-01-24T00:08:29.413Z,101275
2018-01-24T00:10:57.657Z,101277
2018-01-24T00:13:25.934Z,101281
2018-01-24T00:15:54.937Z,101282
2018-01-24T00:18:23.286Z,101278
2018-01-24T00:20:51.549Z,101262
2018-01-24T00:23:19.805Z,101261
2018-01-24T00:25:48.119Z,101258
2018-01-24T00:28:17.144Z,101257
2018-01-24T00:30:45.447Z,101248
2018-01-24T00:33:13.805Z,101234
2018-01-24T00:35:42.042Z,101234
2018-01-24T00:38:11.042Z,101224
2018-01-24T00:40:40.125Z,101225
2018-01-24T00:43:09.130Z,101230
2018-01-24T00:45:38.115Z,101231
2018-01-24T00:48:07.142Z,101227
2018-01-24T00:50:35.403Z,101232
2018-01-24T00:53:03.642Z,101226
2018-01-24T00:55:31.971Z,101221
2018-01-24T00:58:00.214Z,101213
2018-01-24T01:00:29.233Z,101212
2018-01-24T01:02:57.490Z,101211
2018-01-24T01:05:26.507Z,101219
2018-01-24T01:07:54.914Z,101224
2018-01-24T01:10:23.207Z,101212
2018-01-24T01:12:51.485Z,101197
2018-01-24T01:15:19.794Z,101191
2018-01-24T01:17:48.048Z,101192
2018-01-24T01:20:16.315Z,101196
2018-01-24T01:22:44.741Z,101196
2018-01-24T01:25:13.034Z,101191
2018-01-24T01:27:41.291Z,101196
2018-01-24T01:30:09.637Z,101187
2018-01-24T01:32:38.702Z,101183
2018-01-24T01:35:07.127Z,101173
2018-01-24T01:37:35.355Z,101171
2018-01-24T01:40:03.598Z,101166
2018-01-24T01:42:32.656Z,101164
2018-01-24T01:45:01.683Z,101176
2018-01-24T01:47:29.928Z,101173
2018-01-24T01:49:59.009Z,101173
2018-01-24T01:52:27.265Z,101184
2018-01-24T01:54:55.553Z,101176
2018-01-24T01:57:23.874Z,101182
2018-01-24T01:59:52.131Z,101171
2018-01-24T02:02:20.385Z,101172
2018-01-24T02:04:48.659Z,101162
2018-01-24T02:07:16.933Z,101155
2018-01-24T02:09:45.229Z,101157
2018-01-24T02:12:13.515Z,101164
2018-01-24T02:14:41.763Z,101160
2018-01-24T02:17:10.094Z,101145
2018-01-24T02:19:38.332Z,101148
2018-01-24T02:22:07.343Z,101141
2018-01-24T02:24:35.603Z,101144
2018-01-24T02:27:04.597Z,101133
2018-01-24T02:29:33.683Z,101138
2018-01-24T02:32:02.725Z,101124
2018-01-24T02:34:33.179Z,101115
2018-01-24T02:37:01.480Z,101112
2018-01-24T02:39:30.546Z,101115
2018-01-24T02:41:58.787Z,101119
2018-01-24T02:44:27.110Z,101109
2018-01-24T02:46:55.515Z,101105
2018-01-24T02:49:23.749Z,101099
2018-01-24T02:51:51.968Z,101084
2018-01-24T02:54:20.374Z,101076
2018-01-24T02:56:48.607Z,101062
2018-01-24T02:59:16.870Z,101059
2018-01-24T03:01:45.157Z,101058
2018-01-24T03:04:14.177Z,101062
2018-01-24T03:06:42.414Z,101078
2018-01-24T03:09:10.687Z,101086
2018-01-24T03:11:38.956Z,101096
2018-01-24T03:14:07.319Z,101099
2018-01-24T03:16:35.645Z,101093
2018-01-24T03:19:03.905Z,101094
2018-01-24T03:21:33.073Z,101096
2018-01-24T03:24:01.300Z,101080
2018-01-24T03:26:29.538Z,101084
2018-01-24T03:28:57.809Z,101088
2018-01-24T03:31:26.074Z,101087
2018-01-24T03:33:54.368Z,101094
2018-01-24T03:36:22.591Z,101087
2018-01-24T03:38:50.846Z,101095
2018-01-24T03:41:19.133Z,101095
2018-01-24T03:43:47.377Z,101099
2018-01-24T03:46:16.466Z,101081
2018-01-24T03:48:44.702Z,101084
2018-01-24T03:51:12.941Z,101079
2018-01-24T03:53:41.230Z,101067
2018-01-24T03:56:09.466Z,101063
2018-01-24T03:58:37.846Z,101059
2018-01-24T04:01:06.078Z,101055
2018-01-24T04:03:34.325Z,101052
2018-01-24T04:06:02.723Z,101046
2018-01-24T04:08:30.973Z,101045
2018-01-24T04:10:59.247Z,101040
2018-01-24T04:13:28.367Z,101035
2018-01-24T04:15:56.616Z,101038
2018-01-24T04:18:25.633Z,101032
2018-01-24T04:20:53.939Z,101037
2018-01-24T04:23:22.176Z,101036
2018-01-24T04:25:50.415Z,101040
2018-01-24T04:28:18.711Z,101034
2018-01-24T04:30:47.728Z,101032
2018-01-24T04:33:15.955Z,101028
2018-01-24T04:35:44.231Z,101034
2018-01-24T04:38:12.467Z,101039
2018-01-24T04:40:40.763Z,101039
2018-01-24T04:43:09.013Z,101025
2018-01-24T04:45:37.251Z,101031
2018-01-24T04:48:06.299Z,101030
2018-01-24T04:50:34.536Z,101027
2018-01-24T04:53:02.815Z,101019
2018-01-24T04:55:31.099Z,101016
2018-01-24T04:57:59.357Z,101028
2018-01-24T05:00:27.604Z,101026
2018-01-24T05:02:55.894Z,101037
2018-01-24T05:05:24.950Z,101032
2018-01-24T05:07:53.191Z,101020
2018-01-24T05:10:21.429Z,101034
2018-01-24T05:12:49.730Z,101043
2018-01-24T05:15:18.021Z,101039
2018-01-24T05:17:46.288Z,101043
2018-01-24T05:20:14.600Z,101051
2018-01-24T05:22:42.823Z,101057
2018-01-24T05:25:11.845Z,101053
2018-01-24T05:27:40.148Z,101043
2018-01-24T05:30:08.394Z,101045
2018-01-24T05:32:36.719Z,101034
2018-01-24T05:35:05.048Z,101029
2018-01-24T05:37:34.069Z,101046
2018-01-24T05:40:02.333Z,101037
2018-01-24T05:42:30.609Z,101037
2018-01-24T05:44:58.959Z,101036
2018-01-24T05:47:27.232Z,101031
2018-01-24T05:49:56.340Z,101034
2018-01-24T05:52:24.665Z,101029
2018-01-24T05:54:52.918Z,101031
2018-01-24T05:57:21.138Z,101027
2018-01-24T05:59:50.362Z,101028
2018-01-24T06:02:18.637Z,101023
2018-01-24T06:04:47.108Z,101028
2018-01-24T06:07:15.404Z,101023
2018-01-24T06:09:43.785Z,101011
2018-01-24T06:12:12.138Z,101004
2018-01-24T06:14:40.430Z,101017
2018-01-24T06:17:08.684Z,101011
2018-01-24T06:19:38.374Z,101017
2018-01-24T06:22:06.669Z,101013
2018-01-24T06:24:35.099Z,101009
2018-01-24T06:27:03.434Z,101008
2018-01-24T06:29:31.733Z,101024
2018-01-24T06:32:00.121Z,101026
2018-01-24T06:34:28.387Z,101019
2018-01-24T06:36:56.672Z,101025
2018-01-24T06:39:25.181Z,101024
2018-01-24T06:41:53.486Z,101011
2018-01-24T06:44:22.551Z,101003
2018-01-24T06:46:50.829Z,101012
2018-01-24T06:49:19.074Z,101013
2018-01-24T06:51:47.379Z,101013
2018-01-24T06:54:15.650Z,101010
2018-01-24T06:56:43.918Z,101009
2018-01-24T06:59:12.193Z,101012
2018-01-24T07:01:40.576Z,101015
2018-01-24T07:04:08.876Z,101023
2018-01-24T07:06:37.901Z,101024
2018-01-24T07:09:06.206Z,101017
2018-01-24T07:11:34.484Z,101024
2018-01-24T07:14:20.672Z,101032
2018-01-24T07:16:48.972Z,101030
2018-01-24T07:19:17.276Z,101037
2018-01-24T07:21:45.641Z,101047
2018-01-24T07:24:13.920Z,101034
2018-01-24T07:26:42.177Z,101055
2018-01-24T07:29:10.565Z,101052
2018-01-24T07:31:38.902Z,101050
2018-01-24T07:34:07.225Z,101050
2018-01-24T07:36:35.485Z,101048
2018-01-24T07:39:03.762Z,101051
2018-01-24T07:41:32.907Z,101050
2018-01-24T07:44:01.155Z,101056
2018-01-24T07:46:30.224Z,101059
2018-01-24T07:48:58.534Z,101074
2018-01-24T07:51:27.950Z,101066
2018-01-24T07:53:59.989Z,101070
2018-01-24T07:56:35.131Z,101073
2018-01-24T08:02:18.896Z,101073
2018-01-24T08:04:50.030Z,101061
2018-01-24T08:07:22.455Z,101068
2018-01-24T08:09:50.875Z,101070
2018-01-24T08:12:19.221Z,101072
2018-01-24T08:14:47.518Z,101058
2018-01-24T08:17:15.876Z,101065
2018-01-24T08:19:44.287Z,101053
2018-01-24T08:22:13.553Z,101061
2018-01-24T08:24:41.846Z,101068
2018-01-24T08:27:10.158Z,101065
2018-01-24T08:29:38.451Z,101073
2018-01-24T08:32:06.812Z,101083
2018-01-24T08:34:35.984Z,101074
2018-01-24T08:37:04.484Z,101079
2018-01-24T08:39:33.550Z,101078
2018-01-24T08:42:01.818Z,101081
2018-01-24T08:44:30.248Z,101089
2018-01-24T08:46:58.722Z,101090
2018-01-24T08:49:26.961Z,101089
2018-01-24T08:51:55.268Z,101084
2018-01-24T08:54:24.320Z,101078
2018-01-24T08:56:53.007Z,101078
2018-01-24T08:59:22.516Z,101076
2018-01-24T09:01:50.973Z,101081
2018-01-24T09:04:19.417Z,101083
2018-01-24T09:06:47.684Z,101077
2018-01-24T09:09:16.733Z,101070
2018-01-24T09:11:45.114Z,101074
2018-01-24T09:14:13.342Z,101085
2018-01-24T09:16:42.325Z,101094
2018-01-24T09:19:11.397Z,101096
2018-01-24T09:21:39.669Z,101101
2018-01-24T09:24:07.981Z,101108
2018-01-24T09:26:36.334Z,101122
2018-01-24T09:29:04.604Z,101127
2018-01-24T09:31:32.849Z,101123
2018-01-24T09:34:01.189Z,101121
2018-01-24T09:36:29.598Z,101113
2018-01-24T09:38:57.858Z,101107
2018-01-24T09:41:26.094Z,101096
2018-01-24T09:43:54.554Z,101109
2018-01-24T09:46:22.828Z,101106
2018-01-24T09:48:51.121Z,101112
2018-01-24T09:51:19.448Z,101110
2018-01-24T09:53:47.734Z,101115
2018-01-24T09:56:15.996Z,101115
2018-01-24T09:58:59.254Z,101111
2018-01-24T10:01:27.710Z,101095
2018-01-24T10:03:56.073Z,101107
2018-01-24T10:06:24.479Z,101111
2018-01-24T10:08:52.725Z,101101
2018-01-24T10:11:21.004Z,101101
2018-01-24T10:13:49.333Z,101091
2018-01-24T10:16:17.576Z,101095
2018-01-24T10:18:45.962Z,101095
2018-01-24T10:21:14.246Z,101104
2018-01-24T10:23:42.533Z,101091
2018-01-24T10:26:10.821Z,101072
2018-01-24T10:28:39.892Z,101083
2018-01-24T10:31:08.130Z,101073
2018-01-24T10:33:36.417Z,101071
2018-01-24T10:36:04.950Z,101062
2018-01-24T10:38:33.225Z,101072
2018-01-24T10:41:01.535Z,101062
2018-01-24T10:43:29.924Z,101067
2018-01-24T10:45:58.269Z,101067
2018-01-24T10:48:27.305Z,101067
2018-01-24T10:50:55.626Z,101069
2018-01-24T10:53:23.983Z,101064
2018-01-24T10:55:52.302Z,101059
2018-01-24T10:58:20.650Z,101059
2018-01-24T11:00:49.010Z,101059
2018-01-24T11:03:17.538Z,101056
2018-01-24T11:05:45.843Z,101057
2018-01-24T11:08:14.095Z,101052
2018-01-24T11:10:42.333Z,101049
2018-01-24T11:13:10.639Z,101061
2018-01-24T11:15:39.062Z,101054
2018-01-24T11:18:07.325Z,101050
2018-01-24T11:20:35.629Z,101052
2018-01-24T11:23:03.881Z,101044
2018-01-24T11:25:32.171Z,101044
2018-01-24T11:28:00.451Z,101053
2018-01-24T11:30:28.673Z,101050
2018-01-24T11:32:57.693Z,101046
2018-01-24T11:35:26.019Z,101045
2018-01-24T11:37:54.274Z,101035
2018-01-24T11:40:22.518Z,101037
2018-01-24T11:42:50.827Z,101039
2018-01-24T11:45:19.084Z,101019
2018-01-24T11:47:47.386Z,101027
2018-01-24T11:50:15.683Z,101025
2018-01-24T11:52:44.700Z,101028
2018-01-24T11:55:12.940Z,101034
2018-01-24T11:57:41.261Z,101026
2018-01-24T12:00:09.779Z,101031
2018-01-24T12:02:38.038Z,101032
2018-01-24T12:05:06.338Z,101044
2018-01-24T12:07:34.597Z,101044
2018-01-24T12:10:02.860Z,101040
2018-01-24T12:12:31.134Z,101036
2018-01-24T12:14:59.411Z,101025
2018-01-24T12:17:27.722Z,101016
2018-01-24T12:19:55.996Z,101012
2018-01-24T12:22:24.229Z,101007
2018-01-24T12:24:52.552Z,101000
2018-01-24T12:27:20.814Z,100993
2018-01-24T12:29:49.141Z,100999
2018-01-24T12:32:17.576Z,101005
2018-01-24T12:34:45.906Z,101006
2018-01-24T12:37:14.208Z,101008
2018-01-24T12:39:42.585Z,100989
2018-01-24T12:42:10.946Z,100997
2018-01-24T12:44:39.192Z,100991
2018-01-24T12:47:08.195Z,100990
2018-01-24T12:49:36.469Z,100994
2018-01-24T12:52:04.729Z,100989
2018-01-24T12:54:33.761Z,100989
2018-01-24T12:57:02.147Z,100993
2018-01-24T12:59:30.393Z,100987
2018-01-24T13:01:59.652Z,100980
2018-01-24T13:04:27.934Z,100980
2018-01-24T13:06:56.217Z,100972
2018-01-24T13:09:24.476Z,100966
2018-01-24T13:11:52.753Z,100970
2018-01-24T13:14:20.992Z,100964
2018-01-24T13:16:49.238Z,100969
2018-01-24T13:19:18.335Z,100962
2018-01-24T13:21:46.578Z,100969
2018-01-24T13:24:14.812Z,100967
2018-01-24T13:26:43.143Z,100966
2018-01-24T13:29:11.382Z,100966
2018-01-24T13:31:39.610Z,100960
2018-01-24T13:34:08.796Z,100966
2018-01-24T13:36:37.806Z,100959
2018-01-24T13:39:06.824Z,100954
2018-01-24T13:41:35.114Z,100957
2018-01-24T13:44:03.379Z,100961
2018-01-24T13:46:31.615Z,100961
2018-01-24T13:49:00.706Z,100966
2018-01-24T13:51:29.727Z,100960
2018-01-24T13:53:58.026Z,100955
2018-01-24T13:56:26.281Z,100954
2018-01-24T13:58:54.512Z,100954
2018-01-24T14:01:22.842Z,100961
2018-01-24T14:03:51.618Z,100954
2018-01-24T14:06:19.905Z,100950
2018-01-24T14:08:48.149Z,100945
2018-01-24T14:11:17.214Z,100935
2018-01-24T14:13:45.485Z,100940
2018-01-24T14:16:13.717Z,100936
2018-01-24T14:18:42.010Z,100939
2018-01-24T14:21:10.282Z,100941
2018-01-24T14:23:38.528Z,100934
2018-01-24T14:26:07.562Z,100927
2018-01-24T14:28:35.836Z,100935
2018-01-24T14:31:04.071Z,100930
2018-01-24T14:33:33.117Z,100941
2018-01-24T14:36:01.349Z,100931
2018-01-24T14:38:29.651Z,100935
2018-01-24T14:40:57.901Z,100930
2018-01-24T14:43:26.122Z,100926
2018-01-24T14:45:54.369Z,100933
2018-01-24T14:48:22.664Z,100926
2018-01-24T14:50:50.904Z,100925
2018-01-24T14:53:19.158Z,100929
2018-01-24T14:55:48.205Z,100929
2018-01-24T14:58:16.433Z,100910
2018-01-24T15:00:45.448Z,100923
2018-01-24T15:03:13.724Z,100909
2018-01-24T15:05:41.995Z,100909
2018-01-24T15:08:10.240Z,100914
2018-01-24T15:10:38.512Z,100918
2018-01-24T15:13:06.745Z,100917
2018-01-24T15:15:35.037Z,100914
2018-01-24T15:18:03.316Z,100912
2018-01-24T15:20:32.239Z,100904
2018-01-24T15:23:02.171Z,100909
2018-01-24T15:25:30.457Z,100903
2018-01-24T15:27:58.715Z,100902
2018-01-24T15:30:26.994Z,100891
2018-01-24T15:32:55.350Z,100889
2018-01-24T15:35:23.638Z,100897
2018-01-24T15:37:52.646Z,100895
2018-01-24T15:40:20.913Z,100897
2018-01-24T15:42:50.057Z,100882
2018-01-24T15:45:18.304Z,100892
2018-01-24T15:47:46.604Z,100878
2018-01-24T15:50:14.845Z,100867
2018-01-24T15:52:43.079Z,100879
2018-01-24T15:55:11.352Z,100877
2018-01-24T15:57:39.573Z,100869
2018-01-24T16:00:07.839Z,100865
2018-01-24T16:02:36.119Z,100868
2018-01-24T16:05:04.342Z,100866
2018-01-24T16:07:32.771Z,100865
2018-01-24T16:10:01.054Z,100858
2018-01-24T16:12:29.306Z,100862
2018-01-24T16:14:58.309Z,100861
2018-01-24T16:17:27.330Z,100864
2018-01-24T16:19:55.564Z,100861
2018-01-24T16:22:23.806Z,100859
2018-01-24T16:24:52.124Z,100859
2018-01-24T16:27:21.144Z,100858
2018-01-24T16:29:49.373Z,100859
2018-01-24T16:32:17.641Z,100861
2018-01-24T16:34:45.926Z,100862
2018-01-24T16:37:14.986Z,100860
2018-01-24T16:39:43.493Z,100856
2018-01-24T16:42:11.781Z,100853
2018-01-24T16:44:40.026Z,100851
2018-01-24T16:47:08.339Z,100844
2018-01-24T16:49:36.613Z,100838
2018-01-24T16:52:05.615Z,100838
2018-01-24T16:54:34.698Z,100837
2018-01-24T16:57:03.756Z,100844
2018-01-24T16:59:32.006Z,100830
2018-01-24T17:02:00.293Z,100835
2018-01-24T17:04:28.552Z,100828
2018-01-24T17:06:56.801Z,100829
2018-01-24T17:09:26.174Z,100822
2018-01-24T17:11:54.464Z,100821
2018-01-24T17:14:22.736Z,100823
2018-01-24T17:16:51.050Z,100814
2018-01-24T17:19:19.454Z,100810
2018-01-24T17:21:47.801Z,100814
2018-01-24T17:24:16.085Z,100811
2018-01-24T17:26:44.463Z,100809
2018-01-24T17:29:12.884Z,100821
2018-01-24T17:31:41.320Z,100810
2018-01-24T17:34:09.587Z,100812
2018-01-24T17:36:38.782Z,100807
2018-01-24T17:39:07.824Z,100808
2018-01-24T17:41:36.060Z,100797
2018-01-24T17:44:04.305Z,100803
2018-01-24T17:46:32.583Z,100798
2018-01-24T17:49:00.823Z,100800
2018-01-24T17:51:29.058Z,100802
2018-01-24T17:53:58.142Z,100801
2018-01-24T17:56:27.160Z,100800
2018-01-24T17:58:55.419Z,100790
2018-01-24T18:01:23.737Z,100795
2018-01-24T18:03:51.994Z,100797
2018-01-24T18:06:20.270Z,100782
2018-01-24T18:08:48.572Z,100792
2018-01-24T18:11:16.847Z,100792
2018-01-24T18:13:45.137Z,100792
2018-01-24T18:16:13.468Z,100787
2018-01-24T18:18:41.737Z,100794
2018-01-24T18:21:09.997Z,100793
2018-01-24T18:23:39.041Z,100783
2018-01-24T18:26:07.300Z,100783
2018-01-24T18:28:35.551Z,100787
2018-01-24T18:31:03.819Z,100782
2018-01-24T18:33:32.842Z,100787
2018-01-24T18:36:01.114Z,100783
2018-01-24T18:38:29.468Z,100772
2018-01-24T18:40:57.867Z,100773
2018-01-24T18:43:26.107Z,100778
2018-01-24T18:45:55.178Z,100767
2018-01-24T18:48:23.431Z,100779
2018-01-24T18:50:51.664Z,100773
2018-01-24T18:53:20.755Z,100777
2018-01-24T18:55:49.903Z,100780
2018-01-24T18:58:18.144Z,100778
2018-01-24T19:00:46.445Z,100788
2018-01-24T19:03:14.739Z,100772
2018-01-24T19:05:42.958Z,100771
2018-01-24T19:08:11.286Z,100773
2018-01-24T19:10:39.534Z,100771
2018-01-24T19:13:08.123Z,100776
2018-01-24T19:15:36.444Z,100774
2018-01-24T19:18:04.717Z,100773
2018-01-24T19:20:33.019Z,100765
2018-01-24T19:23:02.145Z,100763
2018-01-24T19:25:30.578Z,100754
2018-01-24T19:27:58.884Z,100749
2018-01-24T19:30:27.752Z,100741
2018-01-24T19:32:56.178Z,100734
2018-01-24T19:35:25.323Z,100731
2018-01-24T19:37:54.526Z,100730
2018-01-24T19:40:23.559Z,100720
2018-01-24T19:42:54.159Z,100726
2018-01-24T19:45:22.774Z,100722
2018-01-24T19:47:53.688Z,100728
2018-01-24T19:50:23.013Z,100728
2018-01-24T19:52:51.418Z,100725
2018-01-24T19:55:20.539Z,100719
2018-01-24T19:57:48.887Z,100718
2018-01-24T20:00:17.299Z,100715
2018-01-24T20:02:45.603Z,100716
2018-01-24T20:05:14.153Z,100712
2018-01-24T20:07:42.537Z,100704
2018-01-24T20:10:11.129Z,100704
2018-01-24T20:12:40.212Z,100708
2018-01-24T20:15:09.375Z,100704
2018-01-24T20:17:38.618Z,100707
2018-01-24T20:20:07.843Z,100704
2018-01-24T20:22:36.094Z,100706
2018-01-24T20:25:04.428Z,100689
2018-01-24T20:27:32.834Z,100694
2018-01-24T20:30:02.076Z,100697
2018-01-24T20:32:30.515Z,100692
2018-01-24T20:35:01.219Z,100685
2018-01-24T20:37:30.186Z,100689
2018-01-24T20:39:58.430Z,100683
2018-01-24T20:42:26.769Z,100689
2018-01-24T20:44:55.037Z,100694
2018-01-24T20:47:23.393Z,100688
2018-01-24T20:49:51.842Z,100682
2018-01-24T20:52:20.118Z,100682
2018-01-24T20:54:49.211Z,100687
2018-01-24T20:57:17.476Z,100683
2018-01-24T20:59:46.528Z,100681
2018-01-24T21:02:15.696Z,100673
2018-01-24T21:04:43.935Z,100673
2018-01-24T21:07:12.205Z,100662
2018-01-24T21:09:40.520Z,100674
2018-01-24T21:12:08.794Z,100665
2018-01-24T21:14:37.068Z,100660
2018-01-24T21:17:05.381Z,100661
2018-01-24T21:19:33.730Z,100668
2018-01-24T21:22:02.097Z,100669
2018-01-24T21:24:30.353Z,100671
2018-01-24T21:26:59.753Z,100658
2018-01-24T21:29:52.756Z,100653
2018-01-24T21:32:39.066Z,100642
2018-01-24T21:35:25.369Z,100638
2018-01-24T21:37:53.627Z,100642
2018-01-24T21:40:21.967Z,100644
2018-01-24T21:42:50.345Z,100643
2018-01-24T21:45:18.789Z,100648
2018-01-24T21:47:47.119Z,100651
2018-01-24T21:50:15.483Z,100636
2018-01-24T21:52:44.531Z,100636
2018-01-24T21:55:12.851Z,100634
2018-01-24T21:57:41.129Z,100621
2018-01-24T22:00:10.194Z,100631
2018-01-24T22:02:38.464Z,100627
2018-01-24T22:05:06.705Z,100630
2018-01-24T22:07:35.042Z,100638
2018-01-24T22:10:04.248Z,100646
2018-01-24T22:12:32.592Z,100641
2018-01-24T22:15:01.622Z,100640
2018-01-24T22:17:30.635Z,100636
2018-01-24T22:19:58.960Z,100636
2018-01-24T22:22:27.257Z,100624
2018-01-24T22:24:55.498Z,100629
2018-01-24T22:27:23.994Z,100626
2018-01-24T22:29:52.265Z,100634
2018-01-24T22:32:20.596Z,100629
2018-01-24T22:34:48.876Z,100632
2018-01-24T22:37:17.200Z,100642
2018-01-24T22:39:45.533Z,100647
2018-01-24T22:42:13.902Z,100636
2018-01-24T22:44:42.141Z,100635
2018-01-24T22:47:10.467Z,100635
2018-01-24T22:49:38.806Z,100631
2018-01-24T22:52:07.096Z,100622
2018-01-24T22:54:35.393Z,100634
2018-01-24T22:57:03.721Z,100628
2018-01-24T22:59:32.766Z,100643
2018-01-24T23:02:01.039Z,100639
2018-01-24T23:04:29.299Z,100635
2018-01-24T23:06:57.844Z,100632
2018-01-24T23:09:26.093Z,100623
2018-01-24T23:11:54.345Z,100621
2018-01-24T23:14:22.758Z,100612
2018-01-24T23:16:51.049Z,100615
2018-01-24T23:19:19.383Z,100615
2018-01-24T23:21:47.659Z,100596
2018-01-24T23:24:15.921Z,100597
2018-01-24T23:26:44.284Z,100586
2018-01-24T23:29:12.594Z,100569
2018-01-24T23:31:40.835Z,100578
2018-01-24T23:34:09.209Z,100571
2018-01-24T23:36:37.497Z,100556
2018-01-24T23:39:05.810Z,100556
2018-01-24T23:41:34.217Z,100547
2018-01-24T23:44:02.496Z,100544
2018-01-24T23:46:30.746Z,100535
2018-01-24T23:48:59.039Z,100538
2018-01-24T23:51:27.480Z,100540
2018-01-24T23:53:55.739Z,100526
2018-01-24T23:56:23.992Z,100527
2018-01-24T23:58:53.077Z,100537
